Fairchild Air Force Base
KSKA : now visible

Airfield :











YOU CAN JOIN US ON...

 
LOGIN :

Register | Disclaimer

   EN    FR    IT 

 









Legend :    VFR   Marginal VFR   IFR   Intensive IFR   Very Intensive IFR
Visi :
Ceiling :
>= 8 km
>= 3000ft
5 to 8 km
1000 to 3000 ft
1500m to 5 km
500 to 1000 ft
800 to 1500m
200 to 500 ft
< 800m
< 200 ft
Symbols :   Thunderstorms  Fog  Heavy snow  Heavy precipitations  Wind > 20 kt






- Airport Elevation : 2461 ft


KSKA - Fairchild Air Force Base

CURRENT METAR :
  • 291358Z 19005KT 10SM OVC005 02/02 A3021 RMK AO2A SLP252 T00180018 $

EXPIRED METARs :
  • 291258Z 18005KT 10SM OVC009 02/02 A3021 RMK AO2A SLP250 T00180018 $
  • 291158Z 18006KT 2SM BR OVC003 02/02 A3022 RMK AO2A SLP254 70013 T00190019 10025 20019 53005 $

TAF AMD TAF KSKA
Valid from the 29 at 13:00 until the 30 at 17:00 UTC


291309Z 2913/3017 15004KT 6000 BR OVC008 620202 QNH3019INS
TEMPO 2915/2917 4000 BR SCT008 OVC015
BECMG 2916/2917 19009KT 8000 BR SCT007 OVC020 620252 QNH3016INS
BECMG 2919/2920 20012KT 4800 -RA BR OVC010 620209 QNH3010INS
BECMG 3001/3002 24007KT 1600 -RA BR BKN005 OVC010 620159 QNH3004INS
BECMG 3015/3016 14009KT 4800 -RA BR SCT007 OVC015 620209 QNH3016INS TX04/2921Z TN02/3009Z



MET'MAP, your aeronautical weather chart ! - Copyright ORBIFLY December 2007 - Disclaimer

ORBIFLY MET'MAP TEAM :

Programming & Development : Alexandra Zaïnal
Concept & original design : Baudouin d'Aumeries
Assistance for programming : Marc-Olivier Méhu
Technical & hardware support : Manuel Goepfert

Contact : metmap@orbifly.com




SOURCES & CREDITS :

   NOAA       Earth
Advisory